Latest Weather Observations for Minlaton Airport

IDS60801

Issued at 1:05 pm CDT Friday 28 November 2014 (issued every 30 minutes, with the page automatically refreshed every 10 minutes)

About weather observations | Map of weather stations | Latest weather observations for SA | Other Formats
Station Details ID: 022031 Name: MINLATON AERO Lat: -34.75 Lon: 137.53 Height: 32.0 m
Data from the previous 72 hours. | See also: Recent months at Minlaton Airport
Date/Time
CDT
Temp
°C
App
Temp
°C
Dew
Point
Rel
Hum
%
Delta-T
°C
Wind Press
QNH
hPa
Press
MSL
hPa
Rain
since 9 am
mm
Dir
 
Spd
km/h
Gust
km/h
Spd
kts
Gust
kts
28/01:00pm 29.5 27.2 5.6 22 12.5 SW 7 9 4 5 1017.3 1017.2 0.0
28/12:30pm 28.1 25.3 5.0 23 11.9 ENE 9 17 5 9 1017.8 1017.7 0.0
28/12:00pm 28.0 24.7 6.2 25 11.4 E 13 24 7 13 1018.1 1018.0 0.0
28/11:30am 26.4 22.3 6.4 28 10.4 E 17 26 9 14 1018.3 1018.2 0.0
28/11:00am 25.9 21.8 6.0 28 10.3 E 17 28 9 15 1018.5 1018.4 0.0
28/10:30am 24.9 20.4 6.1 30 9.7 E 19 24 10 13 1018.8 1018.7 0.0
28/10:00am 24.2 20.3 6.9 33 9.0 ESE 17 26 9 14 1019.1 1019.0 0.0
28/09:30am 22.5 19.2 11.6 50 6.1 SE 20 28 11 15 1019.4 1019.3 0.0
28/09:00am 21.0 16.1 11.3 54 5.4 ESE 28 32 15 17 1019.5 1019.4 0.0
28/08:30am 19.7 15.3 12.9 65 3.8 ESE 28 35 15 19 1019.7 1019.6 0.0
28/08:00am 18.2 14.8 13.7 75 2.6 SE 24 32 13 17 1019.7 1019.6 0.0
28/07:30am 16.2 12.6 12.9 81 1.8 SE 24 30 13 16 1019.5 1019.4 0.0
28/07:00am 14.9 12.0 12.2 84 1.5 SE 19 24 10 13 1019.4 1019.3 0.0
28/06:30am 13.3 10.9 11.5 89 1.0 SE 15 22 8 12 1019.5 1019.4 0.0
28/06:00am 12.7 9.4 10.9 89 0.9 SE 19 22 10 12 1019.3 1019.2 0.0
28/05:30am 12.9 9.6 10.8 87 1.1 SE 19 24 10 13 1019.1 1019.0 0.0
28/05:00am 12.9 9.6 10.8 87 1.1 SSE 19 22 10 12 1019.0 1018.9 0.0
28/04:30am 12.9 10.0 11.0 88 1.0 SSE 17 20 9 11 1019.0 1018.9 0.0
28/04:00am 12.3 9.3 10.5 89 0.9 SSE 17 22 9 12 1019.0 1018.9 0.0
28/03:30am 11.9 8.8 10.3 90 0.8 SSE 17 19 9 10 1018.9 1018.8 0.0
28/03:00am 11.8 8.2 10.0 89 0.9 SSE 19 20 10 11 1018.9 1018.8 0.0
28/02:30am 11.9 8.8 10.3 90 0.8 SSE 17 19 9 10 1019.3 1019.2 0.0
28/02:00am 12.3 9.1 10.0 86 1.2 SSE 17 20 9 11 1019.5 1019.4 0.0
28/01:30am 13.3 9.5 11.0 86 1.2 SE 22 26 12 14 1019.5 1019.4 0.0
28/01:00am 13.4 9.9 10.9 85 1.3 SSE 20 26 11 14 1019.9 1019.8 0.0
28/12:30am 13.8 10.5 11.0 83 1.5 SE 19 24 10 13 1020.1 1020.0 0.0
28/12:00am 14.0 9.3 10.6 80 1.8 SE 26 32 14 17 1020.2 1020.1 0.0
 
Date/Time
CDT
Temp
°C
App
Temp
°C
Dew
Point
Rel
Hum
%
Delta-T
°C
Wind Press
QNH
hPa
Press
MSL
hPa
Rain
since 9 am
mm
Dir
 
Spd
km/h
Gust
km/h
Spd
kts
Gust
kts
27/11:30pm 14.1 9.7 10.5 79 1.9 SE 24 32 13 17 1020.4 1020.4 0.0
27/11:00pm 14.2 9.3 10.0 76 2.2 SSE 26 32 14 17 1020.5 1020.5 0.0
27/10:30pm 14.3 9.5 10.3 77 2.1 SE 26 32 14 17 1020.9 1020.9 0.0
27/10:00pm 14.4 10.0 10.4 77 2.1 SSE 24 32 13 17 1021.2 1021.2 0.0
27/09:30pm 14.4 9.9 10.2 76 2.2 SSE 24 32 13 17 1021.4 1021.4 0.0
27/09:00pm 14.6 10.0 9.8 73 2.5 SSE 24 30 13 16 1021.4 1021.4 0.0
27/08:30pm 15.4 10.4 9.7 69 3.0 SSE 26 35 14 19 1021.6 1021.6 0.0
27/08:00pm 16.8 11.4 9.5 62 3.8 SSE 28 35 15 19 1021.6 1021.6 0.0
27/07:30pm 18.1 11.6 8.9 55 4.8 SSE 33 41 18 22 1021.3 1021.3 0.0
27/07:00pm 19.7 13.3 8.4 48 5.9 SSE 32 39 17 21 1021.2 1021.2 0.0
27/06:30pm 21.4 15.0 8.7 44 6.7 SSE 32 39 17 21 1021.0 1021.0 0.0
27/06:00pm 22.9 17.0 9.0 41 7.4 SSE 30 41 16 22 1020.6 1020.6 0.0
27/05:30pm 24.0 18.2 8.0 36 8.5 SSE 28 39 15 21 1020.7 1020.7 0.0
27/05:00pm 24.4 19.3 7.5 34 8.9 SSE 24 35 13 19 1020.8 1020.8 0.0
27/04:30pm 24.7 19.5 7.4 33 9.1 SSE 24 33 13 18 1020.9 1020.9 0.0
27/04:00pm 24.7 18.5 7.8 34 9.0 SSE 30 39 16 21 1020.9 1020.9 0.0
27/03:30pm 25.1 20.0 7.7 33 9.2 SE 24 37 13 20 1021.1 1021.1 0.0
27/03:00pm 25.5 20.9 8.1 33 9.3 SE 22 33 12 18 1021.2 1021.2 0.0
27/02:30pm 24.9 20.3 8.0 34 9.0 SE 22 28 12 15 1021.5 1021.5 0.0
27/02:00pm 24.9 20.5 7.5 33 9.2 ESE 20 26 11 14 1021.9 1021.9 0.0
27/01:30pm 24.1 20.2 7.3 34 8.8 ESE 17 32 9 17 1022.3 1022.3 0.0
27/01:00pm 23.7 19.7 8.2 37 8.2 SE 19 26 10 14 1022.4 1022.4 0.0
27/12:30pm 23.4 19.0 9.0 40 7.7 SE 22 32 12 17 1022.4 1022.4 0.0
27/12:00pm 23.3 18.6 9.3 41 7.5 ESE 24 37 13 20 1022.7 1022.7 0.0
27/11:30am 22.2 18.1 10.0 46 6.6 SE 22 30 12 16 1023.1 1023.1 0.0
27/11:00am 22.0 18.5 10.2 47 6.4 SE 19 30 10 16 1023.4 1023.4 0.0
27/10:30am 20.4 16.6 9.9 51 5.6 ESE 20 33 11 18 1023.6 1023.6 0.0
27/10:00am 20.1 15.6 9.9 52 5.5 ESE 24 32 13 17 1023.8 1023.8 0.0
27/09:30am 19.7 15.3 10.4 55 5.0 ESE 24 35 13 19 1024.0 1024.0 0.0
27/09:00am 18.9 14.2 10.5 58 4.5 ESE 26 35 14 19 1024.0 1024.0 0.0
27/08:30am 17.7 12.5 10.1 61 4.0 ESE 28 35 15 19 1023.9 1023.9 0.0
27/08:00am 17.2 11.3 10.6 65 3.5 ESE 32 39 17 21 1023.6 1023.6 0.0
27/07:30am 16.3 10.4 10.6 69 3.0 ESE 32 43 17 23 1023.5 1023.5 0.0
27/07:00am 15.3 10.7 10.9 75 2.3 ESE 26 33 14 18 1023.1 1023.1 0.0
27/06:30am 14.5 11.1 11.3 81 1.7 ESE 20 32 11 17 1023.0 1023.0 0.0
27/06:00am 14.2 10.8 11.4 83 1.5 ESE 20 28 11 15 1022.8 1022.8 0.0
27/05:30am 14.1 11.3 11.4 84 1.4 ESE 17 22 9 12 1022.4 1022.4 0.0
27/05:00am 14.5 11.3 11.8 84 1.5 SE 20 26 11 14 1022.2 1022.2 0.0
27/04:30am 14.5 11.8 11.6 83 1.6 ESE 17 24 9 13 1022.3 1022.3 0.0
27/04:00am 14.7 11.1 11.8 83 1.6 SE 22 28 12 15 1022.0 1022.0 0.0
27/03:30am 14.6 10.2 11.7 83 1.6 SE 26 35 14 19 1021.6 1021.6 0.0
27/03:00am 14.4 9.6 11.6 83 1.5 SE 28 33 15 18 1021.7 1021.7 0.0
27/02:30am 14.4 9.1 11.4 82 1.6 SE 30 35 16 19 1021.8 1021.8 0.0
27/02:00am 14.3 9.0 11.3 82 1.6 SE 30 35 16 19 1022.0 1022.0 0.0
27/01:30am 14.4 9.1 11.2 81 1.7 SE 30 35 16 19 1022.4 1022.4 0.0
27/01:00am 14.6 9.6 11.0 79 1.9 SE 28 35 15 19 1022.8 1022.8 0.0
27/12:30am 14.8 10.2 11.0 78 2.0 SE 26 39 14 21 1023.2 1023.2 0.0
27/12:00am 14.5 10.2 10.7 78 2.0 SE 24 30 13 16 1023.5 1023.5 0.0
 
Date/Time
CDT
Temp
°C
App
Temp
°C
Dew
Point
Rel
Hum
%
Delta-T
°C
Wind Press
QNH
hPa
Press
MSL
hPa
Rain
since 9 am
mm
Dir
 
Spd
km/h
Gust
km/h
Spd
kts
Gust
kts
26/11:30pm 14.9 9.8 10.5 75 2.3 SE 28 41 15 22 1023.4 1023.4 0.0
26/11:00pm 14.7 10.0 10.7 77 2.1 SE 26 32 14 17 1023.3 1023.3 0.0
26/10:30pm 14.9 9.7 10.3 74 2.4 SE 28 35 15 19 1023.3 1023.3 0.0
26/10:00pm 15.0 9.5 10.4 74 2.4 SE 30 37 16 20 1023.2 1023.2 0.0
26/09:30pm 15.0 9.5 10.4 74 2.4 SSE 30 37 16 20 1022.7 1022.7 0.0
26/09:00pm 15.2 9.4 10.8 75 2.3 SSE 32 37 17 20 1022.5 1022.5 0.0
26/08:30pm 15.7 9.6 10.5 71 2.7 SSE 33 44 18 24 1022.6 1022.6 0.0
26/08:00pm 16.5 11.2 9.9 65 3.5 SSE 28 39 15 21 1022.6 1022.6 0.0
26/07:30pm 17.5 11.1 9.4 59 4.2 SSE 33 44 18 24 1022.4 1022.4 0.0
26/07:00pm 18.6 11.8 9.1 54 5.0 SSE 35 43 19 23 1022.2 1022.2 0.0
26/06:30pm 19.2 12.4 9.4 53 5.2 SSE 35 43 19 23 1021.8 1021.8 0.0
26/06:00pm 20.0 13.6 9.3 50 5.7 SE 33 43 18 23 1021.7 1021.7 0.0
26/05:30pm 20.9 14.4 8.2 44 6.6 SSE 32 41 17 22 1021.7 1021.7 0.0
26/05:00pm 21.6 15.6 8.8 44 6.8 S 30 39 16 21 1021.7 1021.7 0.0
26/04:30pm 21.4 15.8 7.3 40 7.2 SE 26 37 14 20 1021.8 1021.8 0.0
26/04:00pm 21.8 16.1 6.9 38 7.6 SSE 26 39 14 21 1021.9 1021.9 0.0
26/03:30pm 23.0 16.8 6.3 34 8.5 SSE 28 39 15 21 1021.9 1021.9 0.0
26/03:00pm 21.9 16.5 6.2 36 7.9 SE 24 35 13 19 1022.1 1022.1 0.0
26/02:30pm 22.0 15.9 6.7 37 7.8 SSE 28 39 15 21 1022.4 1022.4 0.0
26/02:00pm 22.0 15.9 6.7 37 7.8 SSE 28 35 15 19 1022.6 1022.6 0.0
26/01:30pm 22.7 17.0 6.5 35 8.3 SSE 26 33 14 18 1022.7 1022.7 0.0
26/01:00pm 21.9 17.4 7.0 38 7.7 SSE 20 28 11 15 1023.0 1023.0 0.0
26/12:30pm 21.5 17.1 6.6 38 7.5 E 19 26 10 14 1023.3 1023.3 0.0
26/12:00pm 21.3 16.8 6.8 39 7.4 S 20 24 11 13 1023.6 1023.6 0.0
26/11:30am 21.2 17.7 7.1 40 7.2 SE 15 26 8 14 1024.0 1024.0 0.0
26/11:00am 20.6 17.1 7.2 42 6.9 SE 15 26 8 14 1024.2 1024.2 0.0
26/10:30am 19.3 15.8 7.1 45 6.1 SSE 15 24 8 13 1024.3 1024.3 0.0
26/10:00am 18.7 14.4 6.9 46 5.9 ESE 19 26 10 14 1024.3 1024.3 0.0
26/09:30am 18.3 14.0 8.0 51 5.2 SSE 20 26 11 14 1024.2 1024.2 0.0
26/09:00am 17.5 14.1 7.8 53 4.9 ESE 15 24 8 13 1024.1 1024.1 0.0
26/08:30am 16.6 12.7 8.6 59 4.1 ESE 19 26 10 14 1023.8 1023.8 0.0
26/08:00am 16.4 12.4 8.4 59 4.1 SSE 19 24 10 13 1023.4 1023.4 0.0
26/07:30am 14.7 11.5 8.6 67 3.1 SSE 15 19 8 10 1023.2 1023.2 0.0
26/07:00am 13.2 10.4 8.7 74 2.3 SSE 13 15 7 8 1022.9 1022.9 0.0
26/06:30am 11.0 7.3 7.9 81 1.5 SE 17 19 9 10 1022.5 1022.5 0.0
26/06:00am 10.2 6.0 7.4 83 1.3 SE 19 20 10 11 1022.1 1022.1 0.0
26/05:30am 10.0 6.1 7.3 83 1.3 SE 17 19 9 10 1022.0 1022.0 0.0
26/05:00am 10.2 6.0 7.3 82 1.4 SE 19 20 10 11 1021.8 1021.8 0.0
26/04:30am 10.2 5.9 7.1 81 1.5 SE 19 20 10 11 1021.8 1021.8 0.0
26/04:00am 10.3 6.1 7.4 82 1.4 SE 19 19 10 10 1021.8 1021.8 0.0
26/03:30am 10.5 6.2 7.2 80 1.6 SE 19 20 10 11 1021.8 1021.8 0.0
26/03:00am 10.5 6.2 7.2 80 1.6 SE 19 20 10 11 1022.0 1022.0 0.0
26/02:30am 10.6 6.7 7.1 79 1.7 SE 17 17 9 9 1022.2 1022.2 0.0
26/02:00am 10.8 6.5 7.1 78 1.8 SE 19 20 10 11 1022.1 1022.1 0.0
26/01:30am 10.6 6.2 6.7 77 1.8 SSE 19 20 10 11 1022.4 1022.4 0.0
26/01:00am 10.3 5.9 6.6 78 1.7 SSE 19 20 10 11 1022.7 1022.7 0.0
26/12:30am 10.4 6.4 6.7 78 1.7 SSE 17 19 9 10 1023.0 1023.0 0.0
26/12:00am 11.3 7.4 7.2 76 2.0 SSE 17 20 9 11 1023.2 1023.2 0.0
 
Date/Time
CDT
Temp
°C
App
Temp
°C
Dew
Point
Rel
Hum
%
Delta-T
°C
Wind Press
QNH
hPa
Press
MSL
hPa
Rain
since 9 am
mm
Dir
 
Spd
km/h
Gust
km/h
Spd
kts
Gust
kts
25/11:30pm 12.0 7.9 7.7 75 2.1 SE 19 20 10 11 1023.4 1023.4 0.0
25/11:00pm 12.5 8.8 7.8 73 2.3 SE 17 20 9 11 1023.5 1023.5 0.0
25/10:30pm 12.9 8.8 8.0 72 2.4 SE 19 24 10 13 1023.5 1023.5 0.0
25/10:00pm 11.9 8.2 6.4 69 2.6 SSE 15 17 8 9 1023.4 1023.4 0.0
25/09:30pm 11.9 8.2 6.2 68 2.7 S 15 17 8 9 1023.3 1023.3 0.0
25/09:00pm 13.4 9.7 6.3 62 3.4 SSE 15 17 8 9 1023.1 1023.1 0.0
25/08:30pm 15.4 10.9 6.9 57 4.2 S 20 30 11 16 1022.8 1022.8 0.0
25/08:00pm 16.5 10.7 6.3 51 5.0 S 26 32 14 17 1022.5 1022.5 0.0
25/07:30pm 17.5 11.0 4.8 43 6.0 S 28 33 15 18 1022.3 1022.3 0.0
25/07:00pm 18.9 13.5 4.7 39 6.8 S 22 28 12 15 1021.9 1021.9 0.0
25/06:30pm 19.2 14.3 8.5 50 5.5 W 24 30 13 16 1021.6 1021.6 0.0
25/06:00pm 19.6 14.0 7.0 44 6.4 W 26 32 14 17 1021.5 1021.5 0.0
25/05:30pm 19.6 13.8 6.3 42 6.6 W 26 32 14 17 1021.8 1021.8 0.0
25/05:00pm 20.4 14.0 5.2 37 7.5 WSW 28 33 15 18 1021.8 1021.8 0.0
25/04:30pm 21.1 15.1 5.5 36 7.7 W 26 33 14 18 1022.0 1022.0 0.0
25/04:00pm 20.2 13.8 5.4 38 7.3 W 28 35 15 19 1022.2 1022.2 0.0
25/03:30pm 20.3 14.2 6.6 41 6.9 W 28 37 15 20 1022.3 1022.3 0.0
25/03:00pm 20.2 14.7 5.8 39 7.1 W 24 32 13 17 1022.6 1022.6 0.0
25/02:30pm 21.4 16.2 7.3 40 7.2 W 24 33 13 18 1022.6 1022.6 0.0
25/02:00pm 20.0 15.1 5.3 38 7.2 W 20 30 11 16 1022.6 1022.6 0.0
25/01:30pm 20.6 15.1 5.8 38 7.3 W 24 33 13 18 1022.7 1022.7 0.0

Other Formats:

Comma delimited format used in spreadsheet applications
http://www.bom.gov.au/fwo/IDS60801/IDS60801.95659.axf

JavaScript Object Notation format (JSON) in row-major order
http://www.bom.gov.au/fwo/IDS60801/IDS60801.95659.json